Florence, MT

5:09 AM MST on December 25, 2014 (GMT -0700)
Missoula International | Change Station
CLOSE
Current Station
Airport
Location: Missoula,
Elevation: 3189 ft
Nearby Weather Stations
Active Advisory: Winter Weather Advisory

Elev 3189 ft 46.92 °N, 114.09 °W | Updated 16 minutes ago

Snow
Snow
28 °F
Feels Like 21 °F
N
7
Wind Variable Wind from WNW

Today
High -- | Low -- °F
--% Chance of Precip.
Yesterday
High -- | Low -- °F
Precip. -- in
8:19 AM 4:53 PM
Waxing Crescent, 16% visible
Pressure 29.87 in
Visibility 9.0 miles
Clouds Mostly Cloudy 3300 ft
Overcast 5000 ft
Windchill 21 °F
Dew Point 28 °F
Humidity 100%
Rainfall 0.18 in
Snow Depth Not available.
UV 0 out of 12
Pollen .10 out of 12
Air Quality Not available.
Flu Activity Not available.
METAR KMSO 251153Z AUTO 29006KT 9SM BKN033 OVC050 M02/M02 A2979 RMK AO2 SNE53 SLP114 P0001 60020 70029 T10221022 10000 21022 51018

More Conditions Fewer Conditions

Pressure 29.87 in
Visibility 9.0 miles
Clouds Mostly Cloudy 3300 ft
Overcast 5000 ft
Windchill 21 °F
Dew Point 28 °F
Humidity 100%
Rainfall 0.18 in
Snow Depth Not available.
UV 0 out of 12
Pollen .10 out of 12
Air Quality Not available.
Flu Activity Not available.
METAR KMSO 251153Z AUTO 29006KT 9SM BKN033 OVC050 M02/M02 A2979 RMK AO2 SNE53 SLP114 P0001 60020 70029 T10221022 10000 21022 51018

More Conditions Fewer Conditions

10-Day Weather Forecast

Almanac

Astronomy

Dec. 25, 2014 Rise Set
Actual Time
Civil Twilight
Nautical Twilight
Astronomical Twilight
Moon
Length of Visible Light
Length of Day
Tomorrow will be .
, % of the Moon is Illuminated

Today's Extremes

State Highs State Lows

Community

WunderPhotos

Upload Photos

1,780,264 photos uploaded!

WunderBlogs® & News

Nearby

Air Quality

  Air Quality AQ Index Pollutant
Not available.

Snow Depth

Station Depth Elevation

Earthquake Activity

City Distance Mag. Time & Date
Minimum magnitude displayed is 2.5.

Coastal Water Temperatures

Place Temperature

Nearby Weather Stations